Time;durP1;ratioP1;P1;durP2;ratioP2;P2;SDS_P1;SDS_P2;PMS_P1;PMS_P2;Temp;Humidity;BMP_temperature;BMP_pressure;BME280_temperature;BME280_humidity;BME280_pressure;Samples;Min_cycle;Max_cycle;Signal;HPM_P1;HPM_P2
2021/08/08 00:06:02;;;;;;;5.07;4.57;;;;;;;18.12;63.24;98573.80;531620;1089;116710;-72
2021/08/08 00:16:09;;;;;;;5.60;4.13;;;;;;;18.15;63.20;98555.69;532524;1089;116045;-71
2021/08/08 00:26:15;;;;;;;4.47;3.67;;;;;;;18.13;63.46;98539.11;521707;1088;116691;-70
2021/08/08 00:36:22;;;;;;;6.68;4.58;;;;;;;18.17;63.95;98526.31;519580;1090;116226;-70
2021/08/08 00:46:29;;;;;;;6.77;3.97;;;;;;;18.19;64.26;98501.23;518868;1089;118424;-69
2021/08/08 00:56:38;;;;;;;6.67;3.77;;;;;;;18.25;64.61;98498.87;532538;1089;116313;-70
2021/08/08 01:06:51;;;;;;;5.38;3.93;;;;;;;18.26;64.88;98471.30;532537;1089;116165;-70
2021/08/08 01:17:04;;;;;;;7.00;3.80;;;;;;;18.13;65.56;98459.41;531832;1090;117816;-70
2021/08/08 01:27:10;;;;;;;6.20;4.27;;;;;;;17.99;66.02;98441.55;532532;1088;116840;-70
2021/08/08 01:37:20;;;;;;;4.77;4.27;;;;;;;17.99;66.94;98438.89;531907;1089;116718;-70
2021/08/08 01:47:32;;;;;;;5.13;4.47;;;;;;;18.12;67.22;98417.92;532510;1088;116614;-70
2021/08/08 01:57:39;;;;;;;4.80;4.40;;;;;;;18.14;67.98;98399.97;532545;1089;116152;-71
2021/08/08 02:07:46;;;;;;;4.47;4.07;;;;;;;18.13;68.12;98390.35;531813;1089;115936;-70
2021/08/08 02:17:54;;;;;;;4.90;4.40;;;;;;;18.11;69.00;98388.87;532514;1090;116345;-71
2021/08/08 02:28:00;;;;;;;6.33;4.33;;;;;;;18.12;69.38;98401.14;531616;1089;116661;-70
2021/08/08 02:38:07;;;;;;;5.43;4.50;;;;;;;18.11;69.59;98429.55;531777;1089;171178;-70
2021/08/08 02:48:13;;;;;;;4.30;3.90;;;;;;;18.10;70.08;98459.77;528652;1089;116557;-70
2021/08/08 02:58:20;;;;;;;4.50;3.70;;;;;;;18.12;70.75;98468.39;525777;1089;116216;-71
2021/08/08 03:08:26;;;;;;;5.30;3.30;;;;;;;18.14;71.39;98497.45;529501;1089;117258;-70
2021/08/08 03:18:34;;;;;;;4.43;3.50;;;;;;;18.01;72.17;98514.74;514679;1089;117448;-70
2021/08/08 03:28:40;;;;;;;5.73;4.07;;;;;;;17.85;73.19;98520.95;531783;1089;116632;-70
2021/08/08 03:38:48;;;;;;;5.30;3.70;;;;;;;17.79;74.03;98505.69;532042;1089;116750;-72
2021/08/08 03:48:55;;;;;;;4.53;3.85;;;;;;;17.73;74.57;98498.42;532626;1089;117278;-71
2021/08/08 03:59:01;;;;;;;4.63;4.23;;;;;;;17.70;75.03;98504.90;531805;1089;117550;-71
2021/08/08 04:09:07;;;;;;;4.87;4.47;;;;;;;17.69;75.60;98503.24;532550;1088;116828;-71
2021/08/08 04:19:14;;;;;;;6.27;3.97;;;;;;;17.82;75.85;98510.64;532537;1088;116183;-71
2021/08/08 04:29:21;;;;;;;4.37;3.97;;;;;;;17.85;76.05;98528.06;531816;1089;116256;-71
2021/08/08 04:39:27;;;;;;;3.50;3.20;;;;;;;17.96;76.19;98522.38;523668;1088;116070;-71
2021/08/08 04:49:34;;;;;;;3.80;3.50;;;;;;;17.95;76.29;98536.66;531811;1089;116973;-71
2021/08/08 04:59:40;;;;;;;6.03;3.80;;;;;;;17.93;76.71;98552.76;532356;1089;116456;-70
2021/08/08 05:09:47;;;;;;;5.00;4.47;;;;;;;17.84;76.86;98577.70;532327;1089;116064;-71
2021/08/08 05:19:54;;;;;;;4.70;4.30;;;;;;;17.79;76.98;98593.30;531825;1090;117312;-70
2021/08/08 05:30:01;;;;;;;5.67;5.13;;;;;;;17.83;77.42;98596.45;532571;1089;116900;-71
2021/08/08 05:40:09;;;;;;;6.90;6.07;;;;;;;17.96;77.31;98630.45;527613;1090;117186;-71
2021/08/08 05:50:15;;;;;;;12.83;10.58;;;;;;;17.84;76.94;98688.38;531718;1088;117005;-71
2021/08/08 06:00:22;;;;;;;9.98;9.05;;;;;;;17.67;76.72;98740.66;532358;1089;117419;-71
2021/08/08 06:10:29;;;;;;;6.00;5.50;;;;;;;17.43;76.50;98755.56;526789;1089;117815;-70
2021/08/08 06:20:35;;;;;;;7.17;6.43;;;;;;;17.40;76.51;98779.77;531895;1088;118468;-71
2021/08/08 06:30:42;;;;;;;5.20;4.80;;;;;;;17.33;76.46;98816.74;531548;1089;116305;-70
2021/08/08 06:40:48;;;;;;;3.33;3.05;;;;;;;17.61;76.09;98838.55;526425;1089;117237;-69
2021/08/08 06:50:55;;;;;;;2.50;2.30;;;;;;;17.52;75.59;98874.02;527915;1089;116449;-70
2021/08/08 07:01:03;;;;;;;2.60;1.70;;;;;;;18.21;75.12;98875.64;532390;1088;118741;-71
2021/08/08 07:11:10;;;;;;;1.53;1.43;;;;;;;18.84;74.14;98875.09;531798;1089;117064;-71
2021/08/08 07:21:17;;;;;;;4.50;1.97;;;;;;;19.09;72.79;98881.22;532436;1088;118415;-71
2021/08/08 07:31:38;;;;;;;1.77;1.60;;;;;;;19.11;72.62;98897.84;531825;1089;116535;-71
2021/08/08 07:41:45;;;;;;;1.40;1.30;;;;;;;19.53;71.71;98919.80;532340;1088;116666;-71
2021/08/08 07:51:52;;;;;;;1.57;1.43;;;;;;;19.69;70.46;98934.06;532567;1088;116612;-72
2021/08/08 08:01:59;;;;;;;3.03;1.83;;;;;;;19.88;69.98;98944.27;531831;1089;116735;-71
2021/08/08 08:12:07;;;;;;;2.20;1.80;;;;;;;19.63;70.05;98956.89;532541;1089;117438;-71
2021/08/08 08:22:16;;;;;;;3.10;1.97;;;;;;;19.66;69.94;98964.53;532605;1088;117839;-72
2021/08/08 08:32:23;;;;;;;2.15;1.85;;;;;;;20.42;69.20;98961.30;528049;1089;116513;-70
2021/08/08 08:42:32;;;;;;;2.23;2.10;;;;;;;21.42;67.33;98985.26;532261;1088;116707;-72
2021/08/08 08:52:38;;;;;;;1.60;1.50;;;;;;;22.53;64.68;98988.03;531697;1089;115991;-71
2021/08/08 09:02:45;;;;;;;4.07;2.00;;;;;;;22.18;63.85;99012.77;520115;1089;116727;-61
2021/08/08 09:13:00;;;;;;;6.20;1.90;;;;;;;22.95;62.84;98990.86;499238;1090;20002967;-62
2021/08/08 09:23:08;;;;;;;2.47;1.50;;;;;;;23.97;61.08;98994.97;521286;1088;116347;-61
2021/08/08 09:33:14;;;;;;;3.87;1.83;;;;;;;24.51;59.53;99046.94;516323;1089;116145;-62
2021/08/08 09:43:27;;;;;;;3.33;1.73;;;;;;;24.03;58.70;99066.58;529499;1088;116840;-62
2021/08/08 09:53:34;;;;;;;2.40;2.17;;;;;;;23.69;58.42;99084.34;532085;1089;117638;-62
2021/08/08 10:03:40;;;;;;;2.73;1.40;;;;;;;24.07;57.95;99097.35;531096;1089;116687;-62
2021/08/08 10:13:52;;;;;;;1.48;1.38;;;;;;;25.24;56.33;99103.67;530899;1089;118379;-61
2021/08/08 10:24:06;;;;;;;2.07;1.30;;;;;;;25.16;55.90;99083.19;531572;1089;117325;-61
2021/08/08 10:34:12;;;;;;;1.27;1.17;;;;;;;24.92;54.92;99108.80;531553;1090;118427;-62
2021/08/08 10:44:21;;;;;;;2.10;1.90;;;;;;;25.00;53.90;99122.85;530242;1089;116250;-60
2021/08/08 10:54:28;;;;;;;3.33;1.10;;;;;;;25.57;53.11;99135.11;528574;1090;116631;-61
2021/08/08 11:04:34;;;;;;;2.03;1.28;;;;;;;25.18;53.19;99153.67;523224;1089;117755;-62
2021/08/08 11:14:49;;;;;;;3.10;2.83;;;;;;;25.10;52.83;99132.38;531471;1089;116527;-62
2021/08/08 11:25:00;;;;;;;0.87;0.87;;;;;;;24.67;53.14;99125.45;531701;1089;116237;-63
2021/08/08 11:35:09;;;;;;;1.83;1.30;;;;;;;24.74;52.49;99147.75;530721;1089;115998;-62
2021/08/08 11:45:16;;;;;;;2.33;1.10;;;;;;;24.63;52.13;99165.28;531820;1089;116269;-63
2021/08/08 11:55:23;;;;;;;2.90;1.10;;;;;;;24.88;52.13;99178.19;531792;1089;116711;-62
2021/08/08 12:05:31;;;;;;;1.43;1.17;;;;;;;25.01;51.39;99172.84;532537;1088;116917;-61
2021/08/08 12:15:38;;;;;;;1.97;1.37;;;;;;;24.98;50.83;99184.00;531317;1089;116606;-63
2021/08/08 12:25:57;;;;;;;2.25;1.98;;;;;;;25.13;50.62;99194.58;531783;1089;117124;-61
2021/08/08 12:36:12;;;;;;;1.73;0.97;;;;;;;25.27;50.18;99197.27;520849;1088;117508;-61
2021/08/08 12:46:19;;;;;;;1.03;0.70;;;;;;;24.81;50.65;99209.55;531179;1089;117516;-62
2021/08/08 12:56:24;;;;;;;;;;;;;;;24.52;49.87;99206.91;520633;1090;116417;-62
2021/08/08 13:06:31;;;;;;;1.00;0.97;;;;;;;24.87;50.65;99201.51;532649;1090;102848;-61
2021/08/08 13:16:37;;;;;;;1.53;0.90;;;;;;;25.37;48.96;99226.42;530653;1088;117405;-61
2021/08/08 13:26:45;;;;;;;3.20;1.13;;;;;;;25.30;48.66;99229.09;532277;1089;117416;-62
2021/08/08 13:36:52;;;;;;;2.43;0.57;;;;;;;25.21;48.06;99230.31;532219;1089;117719;-62
2021/08/08 13:46:58;;;;;;;1.13;0.73;;;;;;;24.82;48.25;99227.30;531508;1089;115999;-62
2021/08/08 13:57:05;;;;;;;1.47;0.67;;;;;;;24.62;49.00;99236.09;529386;1088;117108;-62
2021/08/08 14:07:12;;;;;;;1.30;0.68;;;;;;;24.47;48.23;99230.84;532425;1088;117224;-62
2021/08/08 14:17:18;;;;;;;1.73;0.77;;;;;;;24.20;48.89;99234.20;531760;1089;117050;-61
2021/08/08 14:27:25;;;;;;;1.17;0.50;;;;;;;24.51;47.94;99239.34;532340;1089;116474;-62
2021/08/08 14:37:31;;;;;;;0.70;0.60;;;;;;;24.37;47.89;99235.73;531730;1089;117213;-62
2021/08/08 14:47:38;;;;;;;1.70;0.50;;;;;;;24.34;47.53;99229.75;522791;1089;119641;-63
2021/08/08 14:57:44;;;;;;;4.77;0.93;;;;;;;24.30;47.27;99238.39;529629;1088;117136;-63
2021/08/08 15:07:51;;;;;;;0.60;0.60;;;;;;;24.16;47.70;99240.98;530338;1089;117282;-62
2021/08/08 15:17:59;;;;;;;0.70;0.53;;;;;;;24.12;48.05;99237.02;532314;1088;116489;-62
2021/08/08 15:28:04;;;;;;;;;;;;;;;23.95;47.28;99244.50;532423;1089;116617;-63
2021/08/08 15:38:11;;;;;;;1.05;0.80;;;;;;;23.74;48.09;99246.22;532097;1089;103191;-62
2021/08/08 15:48:18;;;;;;;1.57;0.63;;;;;;;23.38;48.17;99257.84;532433;1089;116774;-62
2021/08/08 15:58:26;;;;;;;0.63;0.47;;;;;;;23.37;48.37;99261.50;510088;1088;10001160;-60
2021/08/08 16:08:32;;;;;;;0.60;0.60;;;;;;;23.46;48.20;99267.59;521371;1086;116990;-60
2021/08/08 16:18:39;;;;;;;1.43;0.80;;;;;;;23.46;47.89;99267.59;514297;1088;117093;-59
2021/08/08 16:28:46;;;;;;;0.87;0.50;;;;;;;23.37;48.12;99262.35;517813;1089;117804;-59
2021/08/08 16:38:53;;;;;;;2.13;0.70;;;;;;;23.24;48.84;99263.00;524641;1089;116337;-61
2021/08/08 16:49:16;;;;;;;1.47;0.63;;;;;;;23.15;49.09;99277.55;532498;1089;117847;-61
2021/08/08 16:59:23;;;;;;;2.50;0.80;;;;;;;23.13;49.32;99281.42;530390;1089;116524;-60
2021/08/08 17:09:37;;;;;;;1.27;1.17;;;;;;;22.95;49.40;99299.55;531040;1090;118714;-61
2021/08/08 17:19:44;;;;;;;1.70;1.10;;;;;;;22.93;49.55;99295.38;517534;1089;116640;-60
2021/08/08 17:29:51;;;;;;;2.10;2.00;;;;;;;22.40;50.93;99291.77;530995;1089;116695;-60
2021/08/08 17:39:58;;;;;;;4.77;1.30;;;;;;;21.83;52.46;99309.16;530976;1089;116539;-60
2021/08/08 17:50:05;;;;;;;7.43;2.27;;;;;;;21.37;53.41;99313.44;531562;1088;116576;-61
2021/08/08 18:00:13;;;;;;;3.28;1.00;;;;;;;20.91;54.97;99322.14;532391;1088;118700;-60
2021/08/08 18:10:20;;;;;;;7.75;2.15;;;;;;;20.49;56.86;99333.89;532353;1088;116648;-60
2021/08/08 18:20:28;;;;;;;3.27;1.87;;;;;;;20.05;58.20;99330.61;520182;1089;115935;-61
2021/08/08 18:30:34;;;;;;;2.47;1.77;;;;;;;19.70;58.16;99353.86;514550;1090;116075;-61
2021/08/08 18:40:41;;;;;;;7.73;2.23;;;;;;;19.48;59.08;99360.62;525358;1089;117839;-60
2021/08/08 18:50:49;;;;;;;4.37;3.40;;;;;;;19.09;60.67;99372.61;527279;1088;116769;-61
2021/08/08 19:00:55;;;;;;;10.17;3.47;;;;;;;18.73;61.72;99378.89;532442;1089;116604;-61
2021/08/08 19:11:02;;;;;;;8.70;3.20;;;;;;;18.49;62.59;99372.42;527210;1089;116663;-60
2021/08/08 19:21:14;;;;;;;5.83;3.00;;;;;;;18.31;63.45;99383.90;524590;1088;116403;-61
2021/08/08 19:31:22;;;;;;;8.13;2.67;;;;;;;18.23;64.26;99390.98;529432;1090;116901;-60
2021/08/08 19:41:30;;;;;;;5.25;2.98;;;;;;;18.17;64.68;99387.92;532346;1089;116984;-63
2021/08/08 19:51:38;;;;;;;7.67;3.10;;;;;;;18.03;65.38;99391.13;532356;1089;117270;-60
2021/08/08 20:01:44;;;;;;;4.78;3.65;;;;;;;17.84;65.85;99415.98;531620;1090;117117;-61
2021/08/08 20:11:51;;;;;;;4.77;2.60;;;;;;;17.61;66.51;99419.90;532487;1088;117015;-61
2021/08/08 20:21:57;;;;;;;4.70;3.37;;;;;;;17.32;66.97;99423.52;523047;1089;116038;-61
2021/08/08 20:32:05;;;;;;;4.63;3.60;;;;;;;17.06;67.77;99428.63;526009;1088;117758;-60
2021/08/08 20:42:12;;;;;;;5.47;3.90;;;;;;;16.94;68.19;99428.77;528870;1088;117459;-62
2021/08/08 20:52:19;;;;;;;5.67;2.90;;;;;;;16.79;68.54;99438.17;525844;1088;115855;-61
2021/08/08 21:02:25;;;;;;;3.67;2.77;;;;;;;16.63;69.51;99452.00;531583;1090;116797;-61
2021/08/08 21:12:32;;;;;;;7.00;3.50;;;;;;;16.50;69.77;99447.83;532279;1088;116880;-60
2021/08/08 21:22:38;;;;;;;4.20;3.27;;;;;;;16.57;70.32;99440.16;528124;1089;117090;-61
2021/08/08 21:32:45;;;;;;;9.80;3.40;;;;;;;16.62;70.44;99440.58;532322;1088;116174;-60
2021/08/08 21:43:02;;;;;;;8.53;3.47;;;;;;;16.66;70.69;99433.16;529101;1088;117605;-60
2021/08/08 21:53:08;;;;;;;6.97;3.03;;;;;;;16.69;70.87;99421.44;520419;1089;117136;-60
2021/08/08 22:03:27;;;;;;;5.73;4.07;;;;;;;16.59;71.20;99418.81;528748;1088;116663;-61
2021/08/08 22:13:34;;;;;;;4.20;3.03;;;;;;;16.52;71.71;99424.67;528827;1090;116930;-60
2021/08/08 22:23:40;;;;;;;4.50;4.07;;;;;;;16.53;71.78;99422.87;521401;1090;117540;-62
2021/08/08 22:33:47;;;;;;;4.23;3.03;;;;;;;16.57;71.85;99429.55;524028;1089;116423;-60
2021/08/08 22:43:54;;;;;;;3.57;3.00;;;;;;;16.58;72.17;99463.03;531720;1088;116949;-61
2021/08/08 22:54:00;;;;;;;4.80;2.90;;;;;;;16.61;72.00;99483.13;532413;1088;116265;-60
2021/08/08 23:04:08;;;;;;;5.93;3.20;;;;;;;16.70;71.66;99495.54;532519;1089;116929;-61
2021/08/08 23:14:14;;;;;;;4.00;2.90;;;;;;;16.73;71.40;99505.86;531827;1090;116786;-61
2021/08/08 23:24:21;;;;;;;5.43;3.43;;;;;;;16.80;71.51;99501.67;531723;1089;117256;-61
2021/08/08 23:34:27;;;;;;;2.80;2.50;;;;;;;16.78;71.64;99516.86;531986;1088;117474;-61
2021/08/08 23:44:34;;;;;;;5.17;4.17;;;;;;;16.72;71.45;99498.03;532559;1089;116712;-61
2021/08/08 23:54:41;;;;;;;5.20;3.37;;;;;;;16.71;71.91;99513.12;532529;1088;116877;-60
